sensor_id;sensor_type;location;lat;lon;timestamp;pressure;altitude;pressure_sealevel;temperature;humidity
42705;BME280;28342;42.594;23.414;2022-12-16T00:00:45;94372.25;;;3.97;100.00
42705;BME280;28342;42.594;23.414;2022-12-16T00:03:10;94357.28;;;3.97;100.00
42705;BME280;28342;42.594;23.414;2022-12-16T00:05:36;94338.66;;;3.99;99.83
42705;BME280;28342;42.594;23.414;2022-12-16T00:08:02;94349.09;;;4.09;98.78
42705;BME280;28342;42.594;23.414;2022-12-16T00:10:28;94336.06;;;3.94;98.91
42705;BME280;28342;42.594;23.414;2022-12-16T00:13:13;94339.97;;;3.96;99.89
42705;BME280;28342;42.594;23.414;2022-12-16T00:15:39;94332.91;;;3.92;99.93
42705;BME280;28342;42.594;23.414;2022-12-16T00:18:04;94318.75;;;3.93;99.37
42705;BME280;28342;42.594;23.414;2022-12-16T00:20:30;94340.25;;;3.95;99.53
42705;BME280;28342;42.594;23.414;2022-12-16T00:22:55;94322.94;;;3.99;99.68
42705;BME280;28342;42.594;23.414;2022-12-16T00:25:20;94314.56;;;3.86;99.31
42705;BME280;28342;42.594;23.414;2022-12-16T00:27:46;94317.75;;;3.78;100.00
42705;BME280;28342;42.594;23.414;2022-12-16T00:30:12;94315.13;;;3.83;99.92
42705;BME280;28342;42.594;23.414;2022-12-16T00:32:37;94323.50;;;3.80;100.00
42705;BME280;28342;42.594;23.414;2022-12-16T00:35:03;94333.47;;;3.88;100.00
42705;BME280;28342;42.594;23.414;2022-12-16T00:37:28;94312.50;;;3.78;100.00
42705;BME280;28342;42.594;23.414;2022-12-16T00:39:54;94342.34;;;3.93;100.00
42705;BME280;28342;42.594;23.414;2022-12-16T00:42:19;94331.88;;;3.87;100.00
42705;BME280;28342;42.594;23.414;2022-12-16T00:44:44;94335.56;;;3.86;100.00
42705;BME280;28342;42.594;23.414;2022-12-16T00:47:10;94327.44;;;3.83;100.00
42705;BME280;28342;42.594;23.414;2022-12-16T00:49:35;94320.09;;;3.80;100.00
42705;BME280;28342;42.594;23.414;2022-12-16T00:52:01;94322.44;;;3.86;100.00
42705;BME280;28342;42.594;23.414;2022-12-16T00:54:26;94324.53;;;3.89;100.00
42705;BME280;28342;42.594;23.414;2022-12-16T00:56:52;94316.94;;;3.88;100.00
42705;BME280;28342;42.594;23.414;2022-12-16T00:59:17;94319.50;;;3.98;100.00
42705;BME280;28342;42.594;23.414;2022-12-16T01:01:42;94299.63;;;3.87;100.00
42705;BME280;28342;42.594;23.414;2022-12-16T01:04:08;94317.91;;;3.97;100.00
42705;BME280;28342;42.594;23.414;2022-12-16T01:06:33;94314.03;;;3.89;100.00
42705;BME280;28342;42.594;23.414;2022-12-16T01:08:59;94324.97;;;4.07;100.00
42705;BME280;28342;42.594;23.414;2022-12-16T01:11:24;94308.22;;;3.98;100.00
42705;BME280;28342;42.594;23.414;2022-12-16T01:13:50;94304.03;;;3.92;100.00
42705;BME280;28342;42.594;23.414;2022-12-16T01:16:16;94317.16;;;3.92;100.00
42705;BME280;28342;42.594;23.414;2022-12-16T01:18:41;94317.47;;;3.85;100.00
42705;BME280;28342;42.594;23.414;2022-12-16T01:21:08;94300.97;;;3.74;100.00
42705;BME280;28342;42.594;23.414;2022-12-16T01:23:36;94335.06;;;3.84;100.00
42705;BME280;28342;42.594;23.414;2022-12-16T01:26:01;94318.22;;;3.90;100.00
42705;BME280;28342;42.594;23.414;2022-12-16T01:28:27;94327.97;;;3.80;100.00
42705;BME280;28342;42.594;23.414;2022-12-16T01:30:54;94312.00;;;3.71;100.00
42705;BME280;28342;42.594;23.414;2022-12-16T01:33:21;94322.72;;;3.80;100.00
42705;BME280;28342;42.594;23.414;2022-12-16T01:35:47;94311.16;;;3.86;100.00
42705;BME280;28342;42.594;23.414;2022-12-16T01:38:12;94306.94;;;3.90;100.00
42705;BME280;28342;42.594;23.414;2022-12-16T01:40:38;94319.25;;;3.95;100.00
42705;BME280;28342;42.594;23.414;2022-12-16T01:43:10;94316.06;;;3.98;100.00
42705;BME280;28342;42.594;23.414;2022-12-16T01:45:37;94319.72;;;4.07;100.00
42705;BME280;28342;42.594;23.414;2022-12-16T01:48:19;94314.44;;;4.12;100.00
42705;BME280;28342;42.594;23.414;2022-12-16T01:50:47;94298.72;;;4.07;100.00
42705;BME280;28342;42.594;23.414;2022-12-16T01:53:14;94300.25;;;4.18;100.00
42705;BME280;28342;42.594;23.414;2022-12-16T01:55:44;94301.31;;;4.12;100.00
42705;BME280;28342;42.594;23.414;2022-12-16T01:58:19;94291.94;;;4.01;100.00
42705;BME280;28342;42.594;23.414;2022-12-16T02:00:46;94297.41;;;4.09;100.00
42705;BME280;28342;42.594;23.414;2022-12-16T02:03:13;94310.31;;;4.01;100.00
42705;BME280;28342;42.594;23.414;2022-12-16T02:05:40;94318.16;;;4.06;100.00
42705;BME280;28342;42.594;23.414;2022-12-16T02:08:12;94303.03;;;3.87;100.00
42705;BME280;28342;42.594;23.414;2022-12-16T02:13:31;94286.69;;;3.96;100.00
42705;BME280;28342;42.594;23.414;2022-12-16T02:16:52;94271.00;;;3.90;100.00
42705;BME280;28342;42.594;23.414;2022-12-16T02:36:01;94256.31;;;3.89;100.00
42705;BME280;28342;42.594;23.414;2022-12-16T02:38:31;94252.06;;;3.94;100.00
42705;BME280;28342;42.594;23.414;2022-12-16T02:44:06;94271.47;;;3.98;100.00
42705;BME280;28342;42.594;23.414;2022-12-16T02:46:38;94262.31;;;3.95;100.00
42705;BME280;28342;42.594;23.414;2022-12-16T02:49:42;94272.00;;;4.00;100.00
42705;BME280;28342;42.594;23.414;2022-12-16T02:51:51;94277.50;;;3.98;100.00
42705;BME280;28342;42.594;23.414;2022-12-16T02:54:17;94289.91;;;3.82;100.00
42705;BME280;28342;42.594;23.414;2022-12-16T03:02:54;94341.28;;;3.94;100.00
42705;BME280;28342;42.594;23.414;2022-12-16T03:05:49;94332.88;;;3.97;100.00
42705;BME280;28342;42.594;23.414;2022-12-16T03:08:21;94315.09;;;3.88;100.00
42705;BME280;28342;42.594;23.414;2022-12-16T03:10:53;94325.06;;;3.86;100.00
42705;BME280;28342;42.594;23.414;2022-12-16T03:13:20;94332.38;;;3.95;100.00
42705;BME280;28342;42.594;23.414;2022-12-16T03:15:49;94317.13;;;3.97;100.00
42705;BME280;28342;42.594;23.414;2022-12-16T03:18:18;94293.88;;;3.80;100.00
42705;BME280;28342;42.594;23.414;2022-12-16T03:20:58;94287.81;;;3.84;100.00
42705;BME280;28342;42.594;23.414;2022-12-16T03:23:29;94276.28;;;3.80;100.00
42705;BME280;28342;42.594;23.414;2022-12-16T03:26:12;94285.69;;;3.92;100.00
42705;BME280;28342;42.594;23.414;2022-12-16T03:28:49;94278.28;;;4.04;100.00
42705;BME280;28342;42.594;23.414;2022-12-16T03:34:08;94268.53;;;4.09;100.00
42705;BME280;28342;42.594;23.414;2022-12-16T03:36:38;94256.00;;;3.96;100.00
42705;BME280;28342;42.594;23.414;2022-12-16T03:39:07;94275.84;;;4.17;100.00
42705;BME280;28342;42.594;23.414;2022-12-16T03:41:33;94282.22;;;4.01;100.00
42705;BME280;28342;42.594;23.414;2022-12-16T03:44:00;94265.09;;;4.14;100.00
42705;BME280;28342;42.594;23.414;2022-12-16T03:46:26;94256.78;;;3.97;100.00
42705;BME280;28342;42.594;23.414;2022-12-16T03:48:51;94259.09;;;4.08;100.00
42705;BME280;28342;42.594;23.414;2022-12-16T03:51:18;94248.13;;;4.01;100.00
42705;BME280;28342;42.594;23.414;2022-12-16T03:53:44;94274.63;;;4.00;100.00
42705;BME280;28342;42.594;23.414;2022-12-16T03:56:10;94278.81;;;4.01;100.00
42705;BME280;28342;42.594;23.414;2022-12-16T03:58:37;94309.81;;;3.99;100.00
42705;BME280;28342;42.594;23.414;2022-12-16T04:01:08;94309.56;;;3.90;100.00
42705;BME280;28342;42.594;23.414;2022-12-16T04:03:34;94317.13;;;4.02;100.00
42705;BME280;28342;42.594;23.414;2022-12-16T04:06:00;94313.44;;;4.03;100.00
42705;BME280;28342;42.594;23.414;2022-12-16T04:08:25;94315.75;;;4.14;100.00
42705;BME280;28342;42.594;23.414;2022-12-16T04:10:51;94289.13;;;3.87;100.00
42705;BME280;28342;42.594;23.414;2022-12-16T04:13:36;94331.34;;;3.90;100.00
42705;BME280;28342;42.594;23.414;2022-12-16T04:16:20;94300.94;;;3.79;100.00
42705;BME280;28342;42.594;23.414;2022-12-16T04:19:03;94302.84;;;3.69;100.00
42705;BME280;28342;42.594;23.414;2022-12-16T04:21:47;94334.50;;;3.87;100.00
42705;BME280;28342;42.594;23.414;2022-12-16T04:24:32;94308.03;;;3.79;100.00
42705;BME280;28342;42.594;23.414;2022-12-16T04:26:59;94308.78;;;3.89;100.00
42705;BME280;28342;42.594;23.414;2022-12-16T04:29:43;94300.59;;;4.01;100.00
42705;BME280;28342;42.594;23.414;2022-12-16T04:32:28;94297.75;;;3.93;100.00
42705;BME280;28342;42.594;23.414;2022-12-16T04:35:14;94267.63;;;3.85;100.00
42705;BME280;28342;42.594;23.414;2022-12-16T04:37:58;94293.28;;;3.93;100.00
42705;BME280;28342;42.594;23.414;2022-12-16T04:40:42;94283.63;;;3.83;100.00
42705;BME280;28342;42.594;23.414;2022-12-16T04:43:26;94259.75;;;3.85;100.00
42705;BME280;28342;42.594;23.414;2022-12-16T04:46:10;94283.00;;;4.02;100.00
42705;BME280;28342;42.594;23.414;2022-12-16T04:48:58;94296.69;;;3.99;100.00
42705;BME280;28342;42.594;23.414;2022-12-16T04:51:42;94285.31;;;4.08;100.00
42705;BME280;28342;42.594;23.414;2022-12-16T04:54:26;94281.97;;;4.03;100.00
42705;BME280;28342;42.594;23.414;2022-12-16T04:57:10;94300.25;;;4.13;100.00
42705;BME280;28342;42.594;23.414;2022-12-16T04:59:54;94301.84;;;4.14;100.00
42705;BME280;28342;42.594;23.414;2022-12-16T05:02:38;94309.22;;;4.07;100.00
42705;BME280;28342;42.594;23.414;2022-12-16T05:05:22;94271.13;;;4.14;100.00
42705;BME280;28342;42.594;23.414;2022-12-16T05:08:06;94299.75;;;4.16;100.00
42705;BME280;28342;42.594;23.414;2022-12-16T05:10:51;94301.81;;;4.19;100.00
42705;BME280;28342;42.594;23.414;2022-12-16T05:13:35;94277.19;;;4.10;100.00
42705;BME280;28342;42.594;23.414;2022-12-16T05:16:19;94325.13;;;4.26;100.00
42705;BME280;28342;42.594;23.414;2022-12-16T05:19:02;94303.44;;;4.10;100.00
42705;BME280;28342;42.594;23.414;2022-12-16T05:21:47;94332.81;;;4.17;100.00
42705;BME280;28342;42.594;23.414;2022-12-16T05:24:31;94284.03;;;4.06;100.00
42705;BME280;28342;42.594;23.414;2022-12-16T05:27:15;94319.25;;;4.00;100.00
42705;BME280;28342;42.594;23.414;2022-12-16T05:29:59;94291.16;;;3.95;100.00
42705;BME280;28342;42.594;23.414;2022-12-16T05:32:43;94347.53;;;4.08;100.00
42705;BME280;28342;42.594;23.414;2022-12-16T05:35:27;94327.22;;;3.74;100.00
42705;BME280;28342;42.594;23.414;2022-12-16T05:38:11;94318.78;;;3.82;100.00
42705;BME280;28342;42.594;23.414;2022-12-16T05:40:55;94337.91;;;3.88;100.00
42705;BME280;28342;42.594;23.414;2022-12-16T05:43:39;94342.31;;;3.98;100.00
42705;BME280;28342;42.594;23.414;2022-12-16T05:46:23;94331.41;;;3.75;100.00
42705;BME280;28342;42.594;23.414;2022-12-16T05:49:06;94348.94;;;3.90;100.00
42705;BME280;28342;42.594;23.414;2022-12-16T05:51:51;94353.38;;;4.00;100.00
42705;BME280;28342;42.594;23.414;2022-12-16T05:54:34;94371.72;;;3.95;100.00
42705;BME280;28342;42.594;23.414;2022-12-16T05:57:18;94351.81;;;3.88;100.00
42705;BME280;28342;42.594;23.414;2022-12-16T06:00:03;94346.88;;;3.77;100.00
42705;BME280;28342;42.594;23.414;2022-12-16T06:02:48;94311.81;;;3.57;100.00
42705;BME280;28342;42.594;23.414;2022-12-16T06:05:32;94341.91;;;3.75;100.00
42705;BME280;28342;42.594;23.414;2022-12-16T06:08:16;94352.91;;;3.77;100.00
42705;BME280;28342;42.594;23.414;2022-12-16T06:11:00;94336.38;;;3.77;100.00
42705;BME280;28342;42.594;23.414;2022-12-16T06:13:44;94336.28;;;3.97;100.00
42705;BME280;28342;42.594;23.414;2022-12-16T06:16:28;94354.16;;;4.00;100.00
42705;BME280;28342;42.594;23.414;2022-12-16T06:19:12;94329.00;;;3.89;100.00
42705;BME280;28342;42.594;23.414;2022-12-16T06:21:56;94378.53;;;4.01;100.00
42705;BME280;28342;42.594;23.414;2022-12-16T06:24:40;94353.38;;;3.95;100.00
42705;BME280;28342;42.594;23.414;2022-12-16T06:27:24;94359.91;;;4.02;100.00
42705;BME280;28342;42.594;23.414;2022-12-16T06:30:09;94383.78;;;4.01;100.00
42705;BME280;28342;42.594;23.414;2022-12-16T06:32:53;94375.44;;;3.88;100.00
42705;BME280;28342;42.594;23.414;2022-12-16T06:35:37;94386.41;;;4.01;100.00
42705;BME280;28342;42.594;23.414;2022-12-16T06:38:21;94397.72;;;3.91;100.00
42705;BME280;28342;42.594;23.414;2022-12-16T06:41:05;94369.66;;;3.92;100.00
42705;BME280;28342;42.594;23.414;2022-12-16T06:43:49;94364.91;;;3.99;100.00
42705;BME280;28342;42.594;23.414;2022-12-16T06:46:43;94376.91;;;4.10;100.00
42705;BME280;28342;42.594;23.414;2022-12-16T06:49:27;94347.00;;;4.11;100.00
42705;BME280;28342;42.594;23.414;2022-12-16T06:52:12;94354.56;;;4.23;100.00
42705;BME280;28342;42.594;23.414;2022-12-16T06:54:56;94351.09;;;4.27;100.00
42705;BME280;28342;42.594;23.414;2022-12-16T06:57:40;94360.47;;;4.43;100.00
42705;BME280;28342;42.594;23.414;2022-12-16T07:00:24;94360.56;;;4.28;100.00
42705;BME280;28342;42.594;23.414;2022-12-16T07:03:08;94337.91;;;4.42;100.00
42705;BME280;28342;42.594;23.414;2022-12-16T07:05:54;94327.38;;;4.47;100.00
42705;BME280;28342;42.594;23.414;2022-12-16T07:08:38;94324.75;;;4.47;100.00
42705;BME280;28342;42.594;23.414;2022-12-16T07:11:22;94326.59;;;4.42;100.00
42705;BME280;28342;42.594;23.414;2022-12-16T07:14:06;94331.63;;;4.38;100.00
42705;BME280;28342;42.594;23.414;2022-12-16T07:16:50;94359.63;;;4.53;100.00
42705;BME280;28342;42.594;23.414;2022-12-16T07:19:34;94367.25;;;4.55;100.00
42705;BME280;28342;42.594;23.414;2022-12-16T07:22:18;94360.19;;;4.50;100.00
42705;BME280;28342;42.594;23.414;2022-12-16T07:25:03;94343.59;;;4.60;100.00
42705;BME280;28342;42.594;23.414;2022-12-16T07:27:47;94371.94;;;4.58;100.00
42705;BME280;28342;42.594;23.414;2022-12-16T07:30:31;94316.59;;;4.49;100.00
42705;BME280;28342;42.594;23.414;2022-12-16T07:33:15;94379.25;;;4.66;100.00
42705;BME280;28342;42.594;23.414;2022-12-16T07:35:59;94359.09;;;4.56;100.00
42705;BME280;28342;42.594;23.414;2022-12-16T07:38:43;94343.31;;;4.56;100.00
42705;BME280;28342;42.594;23.414;2022-12-16T07:41:27;94358.72;;;4.73;100.00
42705;BME280;28342;42.594;23.414;2022-12-16T07:44:11;94376.81;;;4.74;100.00
42705;BME280;28342;42.594;23.414;2022-12-16T07:46:55;94366.31;;;4.74;100.00
42705;BME280;28342;42.594;23.414;2022-12-16T07:49:39;94367.59;;;4.82;100.00
42705;BME280;28342;42.594;23.414;2022-12-16T07:52:23;94357.03;;;4.87;100.00
42705;BME280;28342;42.594;23.414;2022-12-16T07:55:08;94358.47;;;5.03;100.00
42705;BME280;28342;42.594;23.414;2022-12-16T07:57:52;94349.47;;;5.15;100.00
42705;BME280;28342;42.594;23.414;2022-12-16T08:00:36;94363.59;;;5.24;100.00
42705;BME280;28342;42.594;23.414;2022-12-16T08:03:20;94373.91;;;5.44;100.00
42705;BME280;28342;42.594;23.414;2022-12-16T08:06:04;94360.19;;;5.52;100.00
42705;BME280;28342;42.594;23.414;2022-12-16T08:08:48;94383.69;;;5.67;100.00
42705;BME280;28342;42.594;23.414;2022-12-16T08:11:33;94360.19;;;5.52;100.00
42705;BME280;28342;42.594;23.414;2022-12-16T08:14:17;94371.13;;;5.59;100.00
42705;BME280;28342;42.594;23.414;2022-12-16T08:17:01;94386.28;;;5.73;100.00
42705;BME280;28342;42.594;23.414;2022-12-16T08:19:45;94394.16;;;5.73;100.00
42705;BME280;28342;42.594;23.414;2022-12-16T08:22:29;94395.31;;;5.61;100.00
42705;BME280;28342;42.594;23.414;2022-12-16T08:25:13;94398.78;;;5.57;100.00
42705;BME280;28342;42.594;23.414;2022-12-16T08:27:57;94384.34;;;5.54;100.00
42705;BME280;28342;42.594;23.414;2022-12-16T08:30:41;94400.38;;;5.58;100.00
42705;BME280;28342;42.594;23.414;2022-12-16T08:33:26;94383.13;;;5.70;100.00
42705;BME280;28342;42.594;23.414;2022-12-16T08:36:09;94398.94;;;5.70;100.00
42705;BME280;28342;42.594;23.414;2022-12-16T08:38:53;94373.84;;;5.54;100.00
42705;BME280;28342;42.594;23.414;2022-12-16T08:41:37;94391.03;;;5.70;100.00
42705;BME280;28342;42.594;23.414;2022-12-16T08:44:22;94380.66;;;5.79;100.00
42705;BME280;28342;42.594;23.414;2022-12-16T08:47:06;94370.69;;;5.76;100.00
42705;BME280;28342;42.594;23.414;2022-12-16T08:49:50;94369.81;;;5.86;100.00
42705;BME280;28342;42.594;23.414;2022-12-16T08:52:34;94372.59;;;5.99;100.00
42705;BME280;28342;42.594;23.414;2022-12-16T08:55:18;94365.69;;;6.04;100.00
42705;BME280;28342;42.594;23.414;2022-12-16T08:58:02;94356.06;;;5.94;100.00
42705;BME280;28342;42.594;23.414;2022-12-16T09:00:46;94351.63;;;6.13;100.00
42705;BME280;28342;42.594;23.414;2022-12-16T09:03:30;94333.19;;;6.13;100.00
42705;BME280;28342;42.594;23.414;2022-12-16T09:06:14;94342.31;;;6.40;100.00
42705;BME280;28342;42.594;23.414;2022-12-16T09:08:58;94318.31;;;6.41;100.00
42705;BME280;28342;42.594;23.414;2022-12-16T09:11:42;94321.72;;;6.79;100.00
42705;BME280;28342;42.594;23.414;2022-12-16T09:14:26;94320.75;;;7.08;100.00
42705;BME280;28342;42.594;23.414;2022-12-16T09:17:10;94341.34;;;7.38;100.00
42705;BME280;28342;42.594;23.414;2022-12-16T09:19:54;94321.06;;;7.66;100.00
42705;BME280;28342;42.594;23.414;2022-12-16T09:22:39;94320.84;;;7.90;100.00
42705;BME280;28342;42.594;23.414;2022-12-16T09:25:23;94313.75;;;8.27;100.00
42705;BME280;28342;42.594;23.414;2022-12-16T09:28:07;94325.09;;;8.55;100.00
42705;BME280;28342;42.594;23.414;2022-12-16T09:30:51;94302.56;;;8.57;100.00
42705;BME280;28342;42.594;23.414;2022-12-16T09:33:35;94298.16;;;8.89;100.00
42705;BME280;28342;42.594;23.414;2022-12-16T09:36:19;94299.34;;;9.05;100.00
42705;BME280;28342;42.594;23.414;2022-12-16T09:39:03;94283.97;;;9.38;100.00
42705;BME280;28342;42.594;23.414;2022-12-16T09:45:15;94291.69;;;9.57;100.00
42705;BME280;28342;42.594;23.414;2022-12-16T09:48:11;94299.84;;;9.69;98.01
42705;BME280;28342;42.594;23.414;2022-12-16T09:51:02;94280.22;;;9.70;96.00
42705;BME280;28342;42.594;23.414;2022-12-16T09:53:49;94278.34;;;9.79;95.17
42705;BME280;28342;42.594;23.414;2022-12-16T09:56:35;94268.72;;;9.83;94.29
42705;BME280;28342;42.594;23.414;2022-12-16T09:59:26;94277.03;;;9.99;92.65
42705;BME280;28342;42.594;23.414;2022-12-16T10:02:12;94261.72;;;9.87;93.48
42705;BME280;28342;42.594;23.414;2022-12-16T10:04:57;94270.78;;;10.04;94.14
42705;BME280;28342;42.594;23.414;2022-12-16T10:07:47;94277.03;;;10.08;93.08
42705;BME280;28342;42.594;23.414;2022-12-16T10:13:40;94279.25;;;10.14;91.15
42705;BME280;28342;42.594;23.414;2022-12-16T10:16:43;94286.06;;;10.07;91.52
42705;BME280;28342;42.594;23.414;2022-12-16T10:25:54;94293.13;;;10.20;94.95
42705;BME280;28342;42.594;23.414;2022-12-16T10:28:56;94282.34;;;10.16;92.69
42705;BME280;28342;42.594;23.414;2022-12-16T10:31:43;94265.25;;;10.23;92.77
42705;BME280;28342;42.594;23.414;2022-12-16T10:34:29;94274.47;;;10.42;92.57
42705;BME280;28342;42.594;23.414;2022-12-16T10:37:20;94267.91;;;10.31;92.52
42705;BME280;28342;42.594;23.414;2022-12-16T10:40:14;94250.44;;;10.47;92.58
42705;BME280;28342;42.594;23.414;2022-12-16T10:43:09;94252.63;;;10.63;93.73
42705;BME280;28342;42.594;23.414;2022-12-16T10:45:57;94242.34;;;10.53;89.59
42705;BME280;28342;42.594;23.414;2022-12-16T10:48:42;94248.75;;;10.60;88.38
42705;BME280;28342;42.594;23.414;2022-12-16T10:51:27;94255.13;;;10.68;89.34
42705;BME280;28342;42.594;23.414;2022-12-16T11:00:18;94238.91;;;10.61;89.17
42705;BME280;28342;42.594;23.414;2022-12-16T11:03:20;94228.16;;;10.48;90.04
42705;BME280;28342;42.594;23.414;2022-12-16T11:06:05;94238.13;;;10.52;89.21
42705;BME280;28342;42.594;23.414;2022-12-16T11:08:49;94240.00;;;10.60;90.29
42705;BME280;28342;42.594;23.414;2022-12-16T11:11:33;94249.19;;;10.71;91.77
42705;BME280;28342;42.594;23.414;2022-12-16T11:14:31;94223.91;;;10.65;89.12
42705;BME280;28342;42.594;23.414;2022-12-16T11:17:25;94248.56;;;10.83;89.25
42705;BME280;28342;42.594;23.414;2022-12-16T11:26:04;94252.13;;;10.95;88.08
42705;BME280;28342;42.594;23.414;2022-12-16T11:31:57;94237.91;;;11.08;89.00
42705;BME280;28342;42.594;23.414;2022-12-16T11:34:47;94250.34;;;11.17;89.07
42705;BME280;28342;42.594;23.414;2022-12-16T11:37:33;94248.47;;;11.26;87.51
42705;BME280;28342;42.594;23.414;2022-12-16T11:40:18;94248.75;;;11.33;88.46
42705;BME280;28342;42.594;23.414;2022-12-16T11:43:04;94253.28;;;11.32;87.72
42705;BME280;28342;42.594;23.414;2022-12-16T11:45:50;94229.25;;;11.29;86.21
42705;BME280;28342;42.594;23.414;2022-12-16T11:48:43;94251.06;;;11.52;87.45
42705;BME280;28342;42.594;23.414;2022-12-16T11:51:32;94247.16;;;11.49;85.56
42705;BME280;28342;42.594;23.414;2022-12-16T11:54:26;94234.69;;;11.41;85.87
42705;BME280;28342;42.594;23.414;2022-12-16T11:57:25;94224.38;;;11.40;86.37
42705;BME280;28342;42.594;23.414;2022-12-16T12:00:15;94241.22;;;11.52;85.38
42705;BME280;28342;42.594;23.414;2022-12-16T12:03:06;94228.16;;;11.30;87.12
42705;BME280;28342;42.594;23.414;2022-12-16T12:09:05;94218.31;;;11.30;86.21
42705;BME280;28342;42.594;23.414;2022-12-16T12:23:32;94214.72;;;11.35;88.02
42705;BME280;28342;42.594;23.414;2022-12-16T12:26:27;94208.91;;;11.33;87.17
42705;BME280;28342;42.594;23.414;2022-12-16T12:32:37;94192.84;;;11.29;87.67
42705;BME280;28342;42.594;23.414;2022-12-16T12:38:30;94196.84;;;11.44;86.58
42705;BME280;28342;42.594;23.414;2022-12-16T12:44:10;94186.16;;;11.61;86.38
42705;BME280;28342;42.594;23.414;2022-12-16T12:47:03;94179.88;;;11.66;85.81
42705;BME280;28342;42.594;23.414;2022-12-16T13:02:24;94209.19;;;12.08;86.25
42705;BME280;28342;42.594;23.414;2022-12-16T13:05:11;94183.47;;;12.00;85.29
42705;BME280;28342;42.594;23.414;2022-12-16T13:11:19;94198.44;;;12.04;85.58
42705;BME280;28342;42.594;23.414;2022-12-16T13:17:22;94213.81;;;12.19;85.21
42705;BME280;28342;42.594;23.414;2022-12-16T13:23:30;94205.91;;;12.32;84.25
42705;BME280;28342;42.594;23.414;2022-12-16T13:26:17;94203.91;;;12.29;84.11
42705;BME280;28342;42.594;23.414;2022-12-16T13:29:24;94211.22;;;12.32;84.45
42705;BME280;28342;42.594;23.414;2022-12-16T13:32:18;94199.69;;;12.27;83.87
42705;BME280;28342;42.594;23.414;2022-12-16T13:37:53;94203.66;;;12.42;83.31
42705;BME280;28342;42.594;23.414;2022-12-16T13:41:04;94200.22;;;12.42;83.54
42705;BME280;28342;42.594;23.414;2022-12-16T13:43:56;94200.16;;;12.30;84.61
42705;BME280;28342;42.594;23.414;2022-12-16T13:46:44;94216.34;;;12.37;84.25
42705;BME280;28342;42.594;23.414;2022-12-16T13:58:58;94215.66;;;12.27;83.65
42705;BME280;28342;42.594;23.414;2022-12-16T14:01:43;94216.75;;;12.26;82.45
42705;BME280;28342;42.594;23.414;2022-12-16T14:04:42;94209.22;;;12.29;82.90
42705;BME280;28342;42.594;23.414;2022-12-16T14:07:30;94212.53;;;12.25;82.47
42705;BME280;28342;42.594;23.414;2022-12-16T14:10:38;94226.28;;;12.27;82.23
42705;BME280;28342;42.594;23.414;2022-12-16T14:13:30;94227.31;;;12.35;81.81
42705;BME280;28342;42.594;23.414;2022-12-16T14:26:04;94228.53;;;12.17;81.57
42705;BME280;28342;42.594;23.414;2022-12-16T14:28:53;94227.69;;;12.04;81.85
42705;BME280;28342;42.594;23.414;2022-12-16T14:31:39;94248.75;;;12.09;82.30
42705;BME280;28342;42.594;23.414;2022-12-16T14:37:27;94248.72;;;11.88;82.72
42705;BME280;28342;42.594;23.414;2022-12-16T14:40:21;94271.06;;;11.96;82.30
42705;BME280;28342;42.594;23.414;2022-12-16T14:45:56;94278.25;;;11.95;82.40
42705;BME280;28342;42.594;23.414;2022-12-16T14:48:44;94249.03;;;11.87;82.02
42705;BME280;28342;42.594;23.414;2022-12-16T14:51:30;94274.81;;;11.95;82.57
42705;BME280;28342;42.594;23.414;2022-12-16T14:54:35;94263.09;;;11.87;83.23
42705;BME280;28342;42.594;23.414;2022-12-16T14:57:27;94280.97;;;11.70;83.13
42705;BME280;28342;42.594;23.414;2022-12-16T15:00:22;94273.78;;;11.70;83.37
42705;BME280;28342;42.594;23.414;2022-12-16T15:03:33;94277.03;;;11.76;83.28
42705;BME280;28342;42.594;23.414;2022-12-16T15:06:29;94274.13;;;11.60;83.84
42705;BME280;28342;42.594;23.414;2022-12-16T15:12:11;94253.38;;;11.53;83.84
42705;BME280;28342;42.594;23.414;2022-12-16T15:14:56;94244.31;;;11.54;83.76
42705;BME280;28342;42.594;23.414;2022-12-16T15:17:51;94251.06;;;11.43;83.95
42705;BME280;28342;42.594;23.414;2022-12-16T15:20:40;94265.56;;;11.54;84.32
42705;BME280;28342;42.594;23.414;2022-12-16T15:23:29;94261.75;;;11.34;85.33
42705;BME280;28342;42.594;23.414;2022-12-16T15:26:22;94250.66;;;11.24;85.67
42705;BME280;28342;42.594;23.414;2022-12-16T15:35:31;94263.16;;;11.15;86.11
42705;BME280;28342;42.594;23.414;2022-12-16T15:38:26;94269.13;;;11.12;86.74
42705;BME280;28342;42.594;23.414;2022-12-16T15:41:26;94254.16;;;10.98;86.67
42705;BME280;28342;42.594;23.414;2022-12-16T15:44:14;94262.53;;;11.18;86.09
42705;BME280;28342;42.594;23.414;2022-12-16T15:46:58;94266.47;;;11.12;85.87
42705;BME280;28342;42.594;23.414;2022-12-16T15:49:43;94270.06;;;10.98;86.54
42705;BME280;28342;42.594;23.414;2022-12-16T15:52:34;94262.59;;;10.83;87.19
42705;BME280;28342;42.594;23.414;2022-12-16T16:01:23;94268.72;;;10.75;87.32
42705;BME280;28342;42.594;23.414;2022-12-16T16:04:34;94297.88;;;10.75;87.77
42705;BME280;28342;42.594;23.414;2022-12-16T16:07:23;94265.91;;;10.63;87.59
42705;BME280;28342;42.594;23.414;2022-12-16T16:10:21;94295.53;;;10.65;88.07
42705;BME280;28342;42.594;23.414;2022-12-16T16:13:05;94279.31;;;10.66;88.18
42705;BME280;28342;42.594;23.414;2022-12-16T16:15:49;94296.94;;;10.71;88.15
42705;BME280;28342;42.594;23.414;2022-12-16T16:18:34;94281.34;;;10.61;88.37
42705;BME280;28342;42.594;23.414;2022-12-16T16:21:18;94289.13;;;10.66;87.91
42705;BME280;28342;42.594;23.414;2022-12-16T16:24:02;94282.44;;;10.68;87.65
42705;BME280;28342;42.594;23.414;2022-12-16T16:26:46;94289.00;;;10.62;88.54
42705;BME280;28342;42.594;23.414;2022-12-16T16:29:30;94285.38;;;10.84;87.19
42705;BME280;28342;42.594;23.414;2022-12-16T16:32:15;94296.75;;;11.19;85.57
42705;BME280;28342;42.594;23.414;2022-12-16T16:34:58;94302.66;;;11.33;84.54